.
WxDataArchive / Data Records for 2012-03-06
2012-03-05 March 2012 2012-03-07

Data Records for Tuesday, 06 March 2012

Time	Temp	Chill	HIndex	Humid	Dewpt	 Wind 	HiWind	WindDir	Rain 	Barom 
-----	----	-----	------	-----	-----	------	------	-------	-----	----- 
00:00	29.3	29.3	29.3	69	20.4	0	2	270	0.00	30.404 
00:05	29.3	29.3	29.3	69	20.4	0	2	270	0.00	30.404 
00:10	29.4	29.4	29.4	69	20.5	0	1	270	0.00	30.404 
00:15	29.4	29.4	29.4	69	20.5	0	1	270	0.00	30.403 
00:20	29.4	29.4	29.4	69	20.5	0	2	270	0.00	30.403 
00:25	29.4	29.4	29.4	69	20.5	0	2	270	0.00	30.403 
00:30	29.4	29.4	29.4	69	20.5	0	2	270	0.00	30.403 
00:35	29.4	29.4	29.4	69	20.5	0	1	270	0.00	30.403 
00:40	29.5	29.5	29.5	69	20.6	0	1	270	0.00	30.403 
00:45	29.5	29.5	29.5	69	20.6	0	2	270	0.00	30.401 
00:50	29.5	29.5	29.5	69	20.6	0	2	270	0.00	30.401 
00:55	29.5	29.5	29.5	69	20.6	0	2	270	0.00	30.401 
01:00	29.5	29.5	29.5	69	20.6	1	3	68	0.00	30.390 
01:05	29.7	29.7	29.7	69	20.8	1	5	112	0.00	30.390 
01:10	29.7	29.7	29.7	69	20.8	0	3	112	0.00	30.390 
01:15	29.8	29.8	29.8	69	20.9	1	3	135	0.00	30.390 
01:20	29.8	29.8	29.8	69	20.9	0	3	135	0.00	30.390 
01:25	29.8	29.8	29.8	69	20.9	0	1	135	0.00	30.390 
01:30	29.7	29.7	29.7	70	21.1	0	1	135	0.00	30.389 
01:35	29.7	29.7	29.7	71	21.5	0	2	135	0.00	30.389 
01:40	29.8	29.8	29.8	71	21.6	0	2	135	0.00	30.389 
01:45	30.0	30.0	30.0	71	21.8	0	2	135	0.00	30.390 
01:50	30.1	30.1	30.1	71	21.9	0	2	112	0.00	30.390 
01:55	30.1	30.1	30.1	71	21.9	0	2	112	0.00	30.390 
02:00	30.3	30.3	30.3	71	22.0	1	2	112	0.00	30.382 
02:05	30.3	30.3	30.3	71	22.0	1	3	45	0.00	30.382 
02:10	30.4	30.4	30.4	71	22.1	0	3	22	0.00	30.382 
02:15	30.4	30.4	30.4	72	22.5	0	1	22	0.00	30.379 
02:20	30.3	30.3	30.3	72	22.4	0	2	22	0.00	30.379 
02:25	30.3	30.3	30.3	72	22.4	0	2	22	0.00	30.379 
02:30	30.3	30.3	30.3	72	22.4	0	1	22	0.00	30.378 
02:35	30.3	30.3	30.3	73	22.7	0	1	292	0.00	30.378 
02:40	30.3	30.3	30.3	73	22.7	0	3	248	0.00	30.378 
02:45	30.1	30.1	30.1	73	22.5	0	2	248	0.00	30.377 
02:50	30.3	30.3	30.3	73	22.7	0	2	248	0.00	30.377 
02:55	30.3	30.3	30.3	73	22.7	0	3	248	0.00	30.377 
03:00	30.3	30.3	30.3	73	22.7	0	2	248	0.00	30.374 
03:05	30.3	30.3	30.3	73	22.7	1	3	248	0.00	30.374 
03:10	30.4	30.4	30.4	73	22.8	0	2	158	0.00	30.374 
03:15	30.4	30.4	30.4	73	22.8	1	5	135	0.00	30.367 
03:20	30.6	30.6	30.6	72	22.7	1	3	112	0.00	30.367 
03:25	30.6	30.6	30.6	72	22.7	1	9	112	0.00	30.367 
03:30	30.6	30.6	30.6	72	22.7	2	5	90	0.00	30.353 
03:35	30.7	30.7	30.7	72	22.8	2	6	90	0.00	30.353 
03:40	30.7	30.7	30.7	72	22.8	1	4	90	0.00	30.353 
03:45	30.7	30.7	30.7	71	22.4	1	6	112	0.00	30.345 
03:50	30.7	30.7	30.7	71	22.4	2	5	112	0.00	30.345 
03:55	30.7	30.7	30.7	71	22.4	2	5	90	0.00	30.345 
04:00	30.9	30.9	30.9	70	22.3	2	6	90	0.00	30.346 
04:05	30.9	30.9	30.9	70	22.3	1	5	112	0.00	30.346 
04:10	30.9	30.9	30.9	70	22.3	2	4	90	0.00	30.346 
04:15	30.9	30.9	30.9	70	22.3	2	5	112	0.00	30.345 
04:20	30.9	30.9	30.9	70	22.3	1	4	112	0.00	30.345 
04:25	30.9	30.9	30.9	70	22.3	1	3	90	0.00	30.345 
04:30	30.7	30.7	30.7	70	22.1	1	4	112	0.00	30.350 
04:35	30.7	30.7	30.7	70	22.1	1	3	90	0.00	30.350 
04:40	30.6	30.6	30.6	70	22.0	2	6	90	0.00	30.350 
04:45	30.6	30.6	30.6	70	22.0	2	5	112	0.00	30.340 
04:50	30.6	30.6	30.6	69	21.7	2	5	112	0.00	30.340 
04:55	30.7	30.7	30.7	69	21.8	2	4	90	0.00	30.340 
05:00	30.7	30.7	30.7	69	21.8	2	4	112	0.00	30.339 
05:05	30.9	30.9	30.9	69	21.9	2	6	112	0.00	30.339 
05:10	30.9	30.9	30.9	68	21.6	2	5	90	0.00	30.339 
05:15	31.0	31.0	31.0	68	21.7	1	4	90	0.00	30.340 
05:20	31.0	31.0	31.0	69	22.0	1	4	135	0.00	30.340 
05:25	31.0	31.0	31.0	69	22.0	1	3	90	0.00	30.340 
05:30	31.0	31.0	31.0	68	21.7	1	3	112	0.00	30.342 
05:35	31.2	31.2	31.2	68	21.9	1	5	68	0.00	30.342 
05:40	31.2	31.2	31.2	68	21.9	1	4	135	0.00	30.342 
05:45	31.3	31.3	31.3	68	22.0	2	6	112	0.00	30.339 
05:50	31.3	31.3	31.3	68	22.0	1	5	135	0.00	30.339 
05:55	31.5	31.5	31.5	67	21.8	1	4	90	0.00	30.339 
06:00	31.5	31.5	31.5	67	21.8	1	5	112	0.00	30.337 
06:05	31.5	31.5	31.5	68	22.2	1	5	112	0.00	30.337 
06:10	31.5	31.5	31.5	68	22.2	1	4	90	0.00	30.337 
06:15	31.5	31.5	31.5	68	22.2	1	5	112	0.00	30.335 
06:20	31.6	31.6	31.6	68	22.3	1	5	90	0.00	30.335 
06:25	31.6	31.6	31.6	68	22.3	1	4	112	0.00	30.335 
06:30	31.6	31.6	31.6	68	22.3	1	4	112	0.00	30.333 
06:35	31.6	31.6	31.6	68	22.3	1	6	90	0.00	30.333 
06:40	31.6	31.6	31.6	68	22.3	1	2	112	0.00	30.333 
06:45	31.6	31.6	31.6	69	22.6	2	5	112	0.00	30.330 
06:50	31.6	31.6	31.6	69	22.6	2	6	112	0.00	30.330 
06:55	31.6	31.6	31.6	69	22.6	1	5	135	0.00	30.330 
07:00	31.6	31.6	31.6	69	22.6	1	4	90	0.00	30.329 
07:05	31.6	31.6	31.6	69	22.6	2	6	112	0.00	30.329 
07:10	31.6	31.6	31.6	69	22.6	1	4	112	0.00	30.329 
07:15	31.6	31.6	31.6	69	22.6	1	4	68	0.00	30.327 
07:20	31.6	31.6	31.6	70	23.0	2	4	112	0.00	30.327 
07:25	31.6	31.6	31.6	70	23.0	1	5	112	0.00	30.327 
07:30	31.6	31.6	31.6	70	23.0	1	4	90	0.00	30.325 
07:35	31.6	31.6	31.6	70	23.0	1	4	90	0.00	30.325 
07:40	31.6	31.6	31.6	70	23.0	2	4	135	0.00	30.325 
07:45	31.8	31.8	31.8	70	23.2	2	4	112	0.00	30.326 
07:50	31.8	31.8	31.8	70	23.2	2	5	90	0.00	30.326 
07:55	31.8	31.8	31.8	70	23.2	2	5	90	0.00	30.326 
08:00	31.9	31.9	31.9	70	23.2	2	6	112	0.00	30.322 
08:05	32.1	32.1	32.1	69	23.1	3	7	90	0.00	30.322 
08:10	32.2	32.2	32.2	69	23.2	3	6	90	0.00	30.322 
08:15	32.2	32.2	32.2	69	23.2	2	5	90	0.00	30.314 
08:20	32.4	32.4	32.4	70	23.7	2	5	112	0.00	30.314 
08:25	32.4	32.4	32.4	69	23.4	2	5	90	0.00	30.314 
08:30	32.5	32.5	32.5	69	23.5	2	5	112	0.00	30.314 
08:35	32.7	32.7	32.7	69	23.7	2	6	112	0.00	30.314 
08:40	32.8	32.8	32.8	69	23.8	2	5	90	0.00	30.314 
08:45	32.9	32.9	32.9	69	23.9	2	5	90	0.00	30.310 
08:50	33.1	33.1	33.1	68	23.7	3	7	90	0.00	30.310 
08:55	33.4	33.4	33.4	68	24.0	3	6	112	0.00	30.310 
09:00	33.5	33.5	33.5	68	24.1	3	7	90	0.00	30.305 
09:05	33.7	33.7	33.7	67	23.9	3	9	90	0.00	30.305 
09:10	34.0	34.0	34.0	67	24.2	3	7	112	0.00	30.305 
09:15	34.3	34.3	34.3	66	24.1	2	6	112	0.00	30.298 
09:20	34.6	34.6	34.6	65	24.1	3	5	90	0.00	30.298 
09:25	34.9	34.9	34.9	65	24.3	2	5	112	0.00	30.298 
09:30	35.0	35.0	35.0	64	24.1	3	7	90	0.00	30.294 
09:35	35.5	35.5	35.5	64	24.5	2	9	68	0.00	30.294 
09:40	35.9	35.9	35.9	63	24.5	3	9	112	0.00	30.294 
09:45	36.0	36.0	36.0	62	24.3	3	6	112	0.00	30.289 
09:50	36.3	36.3	36.3	62	24.5	2	5	112	0.00	30.289 
09:55	36.8	36.8	36.8	62	25.0	2	5	112	0.00	30.289 
10:00	37.6	37.6	37.6	60	25.0	2	6	112	0.00	30.284 
10:05	38.8	38.8	38.8	58	25.3	2	7	90	0.00	30.284 
10:10	39.6	39.6	39.6	55	24.8	3	8	90	0.00	30.284 
10:15	40.2	40.2	40.2	54	24.9	3	12	112	0.00	30.275 
10:20	40.9	40.9	40.9	53	25.1	2	6	112	0.00	30.275 
10:25	41.3	41.3	41.3	52	25.0	3	11	68	0.00	30.275 
10:30	41.6	41.6	41.6	52	25.3	3	10	90	0.00	30.268 
10:35	41.9	41.9	41.9	53	26.0	3	9	90	0.00	30.268 
10:40	41.8	41.8	41.8	52	25.5	3	7	90	0.00	30.268 
10:45	41.6	41.6	41.6	53	25.8	3	6	90	0.00	30.257 
10:50	41.8	41.8	41.8	52	25.5	3	9	90	0.00	30.257 
10:55	42.6	42.6	42.6	53	26.7	3	12	90	0.00	30.257 
11:00	43.3	43.3	43.3	52	26.9	2	6	248	0.00	30.258 
11:05	44.1	44.1	44.1	50	26.7	2	9	90	0.00	30.258 
11:10	44.5	44.5	44.5	50	27.0	2	7	248	0.00	30.258 
11:15	45.1	45.1	45.1	48	26.6	2	12	90	0.00	30.255 
11:20	45.4	45.4	45.4	49	27.4	3	7	68	0.00	30.255 
11:25	45.5	45.5	45.5	48	27.0	3	9	90	0.00	30.255 
11:30	46.0	46.0	46.0	52	29.4	2	6	248	0.00	30.250 
11:35	46.4	46.4	46.4	47	27.3	3	10	90	0.00	30.250 
11:40	46.7	46.7	46.7	46	27.0	3	7	315	0.00	30.250 
11:45	47.0	47.0	47.0	47	27.8	2	9	225	0.00	30.239 
11:50	47.7	47.7	47.7	45	27.4	2	9	248	0.00	30.239 
11:55	48.5	48.5	48.5	48	29.7	2	5	248	0.00	30.239 
12:00	49.1	49.1	49.1	45	28.7	2	6	248	0.00	30.233 
12:05	49.4	49.4	49.4	46	29.5	3	11	248	0.00	30.233 
12:10	49.6	49.6	49.6	44	28.6	3	11	248	0.00	30.233 
12:15	49.9	49.9	49.9	45	29.4	2	7	270	0.00	30.227 
12:20	50.7	50.7	50.7	46	30.7	2	6	270	0.00	30.227 
12:25	51.3	51.3	51.3	45	30.7	2	9	248	0.00	30.227 
12:30	51.9	51.9	51.9	41	28.9	2	10	248	0.00	30.214 
12:35	52.2	52.2	52.2	41	29.2	3	10	270	0.00	30.214 
12:40	52.6	52.6	52.6	41	29.6	3	10	248	0.00	30.214 
12:45	53.1	53.1	53.1	41	30.0	3	12	225	0.00	30.207 
12:50	53.6	53.6	53.6	41	30.5	2	6	248	0.00	30.207 
12:55	54.2	54.2	54.2	41	31.0	2	12	248	0.00	30.207 
13:00	54.7	54.7	54.7	39	30.2	3	6	270	0.00	30.196 
13:05	54.8	54.8	54.8	41	31.6	2	10	248	0.00	30.196 
13:10	55.3	55.3	55.3	40	31.4	2	5	248	0.00	30.196 
13:15	55.9	55.9	55.9	40	31.9	3	9	248	0.00	30.182 
13:20	56.5	56.5	56.5	39	31.8	2	7	248	0.00	30.182 
13:25	56.9	56.9	56.9	40	32.8	2	7	225	0.00	30.182 
13:30	57.0	57.0	57.0	39	32.3	2	9	248	0.00	30.172 
13:35	57.5	57.5	57.5	39	32.7	2	6	270	0.00	30.172 
13:40	57.8	57.8	57.8	38	32.4	4	14	248	0.00	30.172 
13:45	57.8	57.8	57.8	36	31.0	5	14	248	0.00	30.159 
13:50	58.1	58.1	58.1	37	32.0	3	12	248	0.00	30.159 
13:55	58.4	58.4	58.4	36	31.6	2	11	248	0.00	30.159 
14:00	58.9	58.9	58.9	37	32.7	3	7	248	0.00	30.148 
14:05	59.0	59.0	59.0	35	31.4	4	13	248	0.00	30.148 
14:10	59.2	59.2	59.2	36	32.3	3	12	248	0.00	30.148 
14:15	59.6	59.6	59.6	39	34.6	2	6	45	0.00	30.140 
14:20	59.8	59.8	59.8	36	32.8	3	9	248	0.00	30.140 
14:25	60.2	60.2	60.2	37	33.8	2	5	248	0.00	30.140 
14:30	60.4	60.4	60.4	36	33.3	3	9	248	0.00	30.132 
14:35	60.4	60.4	60.4	38	34.7	3	9	248	0.00	30.132 
14:40	60.4	60.4	60.4	36	33.3	3	9	248	0.00	30.132 
14:45	60.5	60.5	60.5	36	33.4	5	12	270	0.00	30.129 
14:50	60.5	60.5	60.5	36	33.4	3	6	248	0.00	30.129 
14:55	60.7	60.7	60.7	36	33.6	3	8	248	0.00	30.129 
15:00	60.9	60.9	60.9	34	32.3	4	12	248	0.00	30.124 
15:05	61.2	61.2	61.2	36	34.0	2	6	248	0.00	30.124 
15:10	61.3	61.3	61.3	35	33.4	4	11	248	0.00	30.124 
15:15	61.5	61.5	61.5	34	32.9	3	10	248	0.00	30.120 
15:20	61.6	61.6	61.6	36	34.4	3	11	248	0.00	30.120 
15:25	61.6	61.6	61.6	34	33.0	4	12	270	0.00	30.120 
15:30	61.8	61.8	61.8	35	33.9	3	11	248	0.00	30.114 
15:35	61.8	61.8	61.8	35	33.9	2	9	90	0.00	30.114 
15:40	62.0	62.0	62.0	35	34.0	2	5	248	0.00	30.114 
15:45	62.0	62.0	62.0	35	34.0	3	9	248	0.00	30.107 
15:50	61.8	61.8	61.8	36	34.6	3	7	248	0.00	30.107 
15:55	61.8	61.8	61.8	37	35.3	2	6	248	0.00	30.107 
16:00	62.1	62.1	62.1	34	33.4	2	7	248	0.00	30.104 
16:05	62.3	62.3	62.3	34	33.6	3	8	248	0.00	30.104 
16:10	62.4	62.4	62.4	34	33.7	2	6	248	0.00	30.104 
16:15	62.3	62.3	62.3	33	32.8	3	11	248	0.00	30.092 
16:20	62.1	62.1	62.1	33	32.7	3	11	248	0.00	30.092 
16:25	62.0	62.0	62.0	32	31.8	4	11	248	0.00	30.092 
16:30	62.0	62.0	62.0	33	32.6	3	11	248	0.00	30.086 
16:35	62.0	62.0	62.0	34	33.3	3	7	248	0.00	30.086 
16:40	62.0	62.0	62.0	35	34.0	2	7	248	0.00	30.086 
16:45	61.8	61.8	61.8	35	33.9	3	10	270	0.00	30.089 
16:50	61.8	61.8	61.8	35	33.9	2	7	112	0.00	30.089 
16:55	61.6	61.6	61.6	34	33.0	4	10	248	0.00	30.089 
17:00	61.6	61.6	61.6	34	33.0	3	9	248	0.00	30.078 
17:05	61.5	61.5	61.5	34	32.9	3	6	248	0.00	30.078 
17:10	61.3	61.3	61.3	36	34.1	3	7	292	0.00	30.078 
17:15	61.2	61.2	61.2	37	34.7	2	7	112	0.00	30.075 
17:20	61.2	61.2	61.2	36	34.0	3	9	90	0.00	30.075 
17:25	61.0	61.0	61.0	35	33.2	3	11	90	0.00	30.075 
17:30	60.9	60.9	60.9	36	33.8	3	8	45	0.00	30.072 
17:35	60.5	60.5	60.5	37	34.1	3	9	112	0.00	30.072 
17:40	60.4	60.4	60.4	37	34.0	2	7	248	0.00	30.072 
17:45	60.2	60.2	60.2	38	34.5	2	9	270	0.00	30.068 
17:50	59.9	59.9	59.9	37	33.6	2	6	248	0.00	30.068 
17:55	59.8	59.8	59.8	38	34.1	2	9	248	0.00	30.068 
18:00	59.6	59.6	59.6	38	34.0	2	6	248	0.00	30.069 
18:05	59.5	59.5	59.5	39	34.5	2	7	248	0.00	30.069 
18:10	59.3	59.3	59.3	39	34.3	2	5	112	0.00	30.069 
18:15	59.0	59.0	59.0	39	34.1	2	5	90	0.00	30.067 
18:20	58.7	58.7	58.7	39	33.8	2	6	22	0.00	30.067 
18:25	58.6	58.6	58.6	40	34.4	2	7	90	0.00	30.067 
18:30	58.3	58.3	58.3	41	34.7	1	6	90	0.00	30.068 
18:35	58.0	58.0	58.0	41	34.4	2	7	112	0.00	30.068 
18:40	57.6	57.6	57.6	42	34.7	2	7	68	0.00	30.068 
18:45	57.3	57.3	57.3	42	34.4	2	7	45	0.00	30.073 
18:50	57.2	57.2	57.2	43	34.9	1	7	270	0.00	30.073 
18:55	56.9	56.9	56.9	43	34.6	1	11	90	0.00	30.073 
19:00	56.6	56.6	56.6	44	34.9	2	5	45	0.00	30.078 
19:05	56.6	56.6	56.6	43	34.4	3	9	90	0.00	30.078 
19:10	56.3	56.3	56.3	44	34.7	1	4	315	0.00	30.078 
19:15	56.2	56.2	56.2	44	34.6	1	4	0	0.00	30.079 
19:20	55.9	55.9	55.9	45	34.9	1	5	270	0.00	30.079 
19:25	55.9	55.9	55.9	44	34.3	2	9	248	0.00	30.079 
19:30	55.9	55.9	55.9	44	34.3	1	6	22	0.00	30.079 
19:35	55.9	55.9	55.9	44	34.3	2	3	90	0.00	30.079 
19:40	55.9	55.9	55.9	44	34.3	2	8	22	0.00	30.079 
19:45	55.9	55.9	55.9	44	34.3	3	10	90	0.00	30.081 
19:50	55.9	55.9	55.9	43	33.7	2	6	90	0.00	30.081 
19:55	55.9	55.9	55.9	44	34.3	2	7	248	0.00	30.081 
20:00	55.9	55.9	55.9	43	33.7	3	6	292	0.00	30.086 
20:05	55.9	55.9	55.9	43	33.7	2	12	248	0.00	30.086 
20:10	55.9	55.9	55.9	43	33.7	2	10	45	0.00	30.086 
20:15	55.7	55.7	55.7	44	34.1	2	7	68	0.00	30.091 
20:20	55.4	55.4	55.4	44	33.9	1	9	338	0.00	30.091 
20:25	55.3	55.3	55.3	45	34.3	2	9	90	0.00	30.091 
20:30	55.0	55.0	55.0	45	34.1	1	6	292	0.00	30.096 
20:35	54.8	54.8	54.8	45	33.9	2	6	112	0.00	30.096 
20:40	54.5	54.5	54.5	46	34.1	1	5	90	0.00	30.096 
20:45	54.2	54.2	54.2	46	33.9	1	4	112	0.00	30.097 
20:50	53.9	53.9	53.9	46	33.6	2	4	90	0.00	30.097 
20:55	53.8	53.8	53.8	47	34.0	1	5	112	0.00	30.097 
21:00	53.5	53.5	53.5	47	33.8	1	3	90	0.00	30.100 
21:05	53.3	53.3	53.3	47	33.6	1	3	68	0.00	30.100 
21:10	53.2	53.2	53.2	47	33.5	1	5	112	0.00	30.100 
21:15	53.1	53.1	53.1	47	33.4	2	5	68	0.00	30.101 
21:20	52.9	52.9	52.9	48	33.7	1	3	68	0.00	30.101 
21:25	52.9	52.9	52.9	47	33.2	2	3	45	0.00	30.101 
21:30	52.9	52.9	52.9	47	33.2	2	5	90	0.00	30.102 
21:35	52.8	52.8	52.8	47	33.1	1	5	112	0.00	30.102 
21:40	52.8	52.8	52.8	46	32.6	2	6	68	0.00	30.102 
21:45	52.9	52.9	52.9	46	32.7	2	9	90	0.00	30.100 
21:50	53.2	53.2	53.2	46	33.0	3	7	90	0.00	30.100 
21:55	53.2	53.2	53.2	45	32.4	2	6	90	0.00	30.100 
22:00	53.2	53.2	53.2	45	32.4	2	6	90	0.00	30.102 
22:05	53.2	53.2	53.2	45	32.4	2	5	112	0.00	30.102 
22:10	53.1	53.1	53.1	45	32.3	2	9	90	0.00	30.102 
22:15	53.1	53.1	53.1	44	31.8	2	8	68	0.00	30.100 
22:20	53.1	53.1	53.1	44	31.8	2	5	112	0.00	30.100 
22:25	52.9	52.9	52.9	44	31.6	1	6	90	0.00	30.100 
22:30	52.8	52.8	52.8	45	32.1	1	4	0	0.00	30.103 
22:35	52.5	52.5	52.5	46	32.3	1	5	22	0.00	30.103 
22:40	52.5	52.5	52.5	45	31.8	2	5	112	0.00	30.103 
22:45	52.3	52.3	52.3	45	31.6	1	4	112	0.00	30.105 
22:50	52.2	52.2	52.2	46	32.1	1	4	90	0.00	30.105 
22:55	52.0	52.0	52.0	46	31.9	1	4	90	0.00	30.105 
23:00	51.9	51.9	51.9	46	31.8	1	3	248	0.00	30.105 
23:05	51.7	51.7	51.7	46	31.6	1	5	90	0.00	30.105 
23:10	51.6	51.6	51.6	47	32.0	1	5	68	0.00	30.105 
23:15	51.3	51.3	51.3	47	31.8	1	3	315	0.00	30.100 
23:20	51.1	51.1	51.1	47	31.6	1	3	248	0.00	30.100 
23:25	51.3	51.3	51.3	46	31.2	1	3	45	0.00	30.100 
23:30	51.0	51.0	51.0	47	31.5	1	3	248	0.00	30.101 
23:35	51.0	51.0	51.0	46	31.0	1	3	0	0.00	30.101 
23:40	50.8	50.8	50.8	47	31.3	0	2	0	0.00	30.101 
23:45	50.7	50.7	50.7	47	31.2	1	4	0	0.00	30.103 
23:50	50.5	50.5	50.5	47	31.0	1	3	248	0.00	30.103 
23:55	50.4	50.4	50.4	47	30.9	0	2	248	0.00	30.103 

CoCoRaHS
IN-AL-39
A2 Web Hosting
Creative Commons License
GoDaddy
search engine by freefind advanced

loaded 2018-11-17 18:15:33 • last modified 2010-11-18 10:43:29
Privacy PolicyDisclaimer
• wx.awcolley.com is powered by PmWiki v.2002016 •
• all content (unless otherwise noted) © 2018 A W Colley